HS Bizet — A8MI3 — position and weather

sailwx.info

Track history (hours):
 
Tides and Currents Weather Stations Pressure Air Temp Water Temp Dewpoint Dewpoint Depression Visibility Wind Speed Wind Dir Waves Ship Positions

HS Bizet

Last reported at 2015-Jul-06 23:25 UTC. Time now 2015-Jul-07 02:32 UTC.
Position S 39°01' E 147°28'.

Length 246 m; draft 8.7 m.

Type: Ship (hazmat cat A). MMSI: 636091349.

Date/timePositionNaut miles runAvg speedWind from/ knotsBaromVisibWave heightAir tempDewpointWater temp
2015-Jul-06 23:25S 39°01' E 147°28'2118.0
2015-Jul-06 22:16S 39°08' E 147°03'7 7.3
2015-Jul-06 21:19S 39°10' E 146°55'1114.3
2015-Jul-06 20:33S 39°14' E 146°41'1414.0
2015-Jul-06 19:33S 39°17' E 146°24'1413.8
2015-Jul-06 18:32S 39°13' E 146°06'1414.1
2015-Jul-06 17:30S 39°05' E 145°50'  
2015-Jun-30 09:05S 36°11' E 174°59'510.2
2015-Jun-30 08:33S 36°17' E 174°59'10 9.7
2015-Jun-30 07:34S 36°26' E 174°59'10 9.6
2015-Jun-30 06:34S 36°36' E 174°58'10 9.8
2015-Jun-30 05:33S 36°44' E 174°51'8 7.5
2015-Jun-30 04:33S 36°51' E 174°47'0 0.0
2015-Jun-30 03:33S 36°51' E 174°47'0 0.0
2015-Jun-30 02:33S 36°51' E 174°47'0 0.1
2015-Jun-30 01:33S 36°51' E 174°47'0 0.1
2015-Jun-30 00:33S 36°51' E 174°47'0 0.0
2015-Jun-29 23:33S 36°51' E 174°47'0 0.0
2015-Jun-29 22:33S 36°51' E 174°47'0 0.0
2015-Jun-29 21:34S 36°51' E 174°47'0 0.0
2015-Jun-29 20:33S 36°51' E 174°47'0 0.0
2015-Jun-29 19:33S 36°51' E 174°47'0 0.0
2015-Jun-29 18:33S 36°51' E 174°47'6 6.1
2015-Jun-29 17:33S 36°45' E 174°50'10 9.8
2015-Jun-29 16:33S 36°37' E 174°57'9 9.1
2015-Jun-29 15:34S 36°31' E 175°06'9 8.9
2015-Jun-29 14:33S 36°25' E 175°15'  
Track history (hours):
 
Tides and Currents Weather Stations Pressure Air Temp Water Temp Dewpoint Dewpoint Depression Visibility Wind Speed Wind Dir Waves Ship Positions

HS Bizet

Last reported at 2015-Jul-06 23:25 UTC. Time now 2015-Jul-07 02:32 UTC.
Position S 39°01' E 147°28'.

Length 246 m; draft 8.7 m.

Type: Ship (hazmat cat A). MMSI: 636091349.

Date/timePositionNaut miles runAvg speedWind from/ knotsBaromVisibWave heightAir tempDewpointWater temp
2015-Jul-06 23:25S 39°01' E 147°28'2118.0
2015-Jul-06 22:16S 39°08' E 147°03'7 7.3
2015-Jul-06 21:19S 39°10' E 146°55'1114.3
2015-Jul-06 20:33S 39°14' E 146°41'1414.0
2015-Jul-06 19:33S 39°17' E 146°24'1413.8
2015-Jul-06 18:32S 39°13' E 146°06'1414.1
2015-Jul-06 17:30S 39°05' E 145°50'  
2015-Jun-30 09:05S 36°11' E 174°59'510.2
2015-Jun-30 08:33S 36°17' E 174°59'10 9.7
2015-Jun-30 07:34S 36°26' E 174°59'10 9.6
2015-Jun-30 06:34S 36°36' E 174°58'10 9.8
2015-Jun-30 05:33S 36°44' E 174°51'8 7.5
2015-Jun-30 04:33S 36°51' E 174°47'0 0.0
2015-Jun-30 03:33S 36°51' E 174°47'0 0.0
2015-Jun-30 02:33S 36°51' E 174°47'0 0.1
2015-Jun-30 01:33S 36°51' E 174°47'0 0.1
2015-Jun-30 00:33S 36°51' E 174°47'0 0.0
2015-Jun-29 23:33S 36°51' E 174°47'0 0.0
2015-Jun-29 22:33S 36°51' E 174°47'0 0.0
2015-Jun-29 21:34S 36°51' E 174°47'0 0.0
2015-Jun-29 20:33S 36°51' E 174°47'0 0.0
2015-Jun-29 19:33S 36°51' E 174°47'0 0.0
2015-Jun-29 18:33S 36°51' E 174°47'6 6.1
2015-Jun-29 17:33S 36°45' E 174°50'10 9.8
2015-Jun-29 16:33S 36°37' E 174°57'9 9.1
2015-Jun-29 15:34S 36°31' E 175°06'9 8.9
2015-Jun-29 14:33S 36°25' E 175°15'  

Dump ship's entire track history